createdAt,value
2023-02-03T00:02:00.239Z,11.74
2023-02-03T00:04:27.570Z,11.73
2023-02-03T00:06:54.369Z,11.71
2023-02-03T00:09:21.491Z,11.72
2023-02-03T00:11:48.426Z,11.73
2023-02-03T00:14:15.564Z,11.73
2023-02-03T00:16:42.496Z,11.71
2023-02-03T00:19:09.660Z,11.71
2023-02-03T00:21:36.439Z,11.71
2023-02-03T00:24:03.314Z,11.74
2023-02-03T00:26:30.403Z,11.75
2023-02-03T00:28:59.372Z,11.75
2023-02-03T00:31:26.336Z,11.78
2023-02-03T00:33:56.405Z,11.80
2023-02-03T00:36:23.615Z,11.83
2023-02-03T00:38:50.467Z,11.83
2023-02-03T00:41:17.754Z,11.85
2023-02-03T00:43:44.586Z,11.84
2023-02-03T00:46:11.476Z,11.85
2023-02-03T00:48:38.446Z,11.85
2023-02-03T00:51:05.607Z,11.85
2023-02-03T00:53:32.856Z,11.87
2023-02-03T00:56:00.040Z,11.87
2023-02-03T00:58:26.913Z,11.84
2023-02-03T01:00:54.780Z,11.81
2023-02-03T01:03:21.485Z,11.82
2023-02-03T01:05:48.269Z,11.81
2023-02-03T01:08:15.306Z,11.81
2023-02-03T01:10:42.325Z,11.80
2023-02-03T01:13:09.078Z,11.81
2023-02-03T01:15:35.735Z,11.83
2023-02-03T01:18:02.554Z,11.87
2023-02-03T01:20:29.405Z,11.91
2023-02-03T01:22:56.445Z,11.94
2023-02-03T01:25:23.253Z,11.96
2023-02-03T01:27:49.977Z,11.97
2023-02-03T01:30:17.275Z,11.99
2023-02-03T01:32:44.085Z,12.02
2023-02-03T01:35:11.083Z,12.03
2023-02-03T01:37:38.147Z,12.04
2023-02-03T01:40:05.290Z,12.05
2023-02-03T01:42:33.055Z,12.09
2023-02-03T01:45:00.139Z,12.11
2023-02-03T01:47:30.252Z,12.12
2023-02-03T01:50:00.047Z,12.13
2023-02-03T01:52:27.449Z,12.12
2023-02-03T01:54:56.600Z,12.11
2023-02-03T01:57:27.332Z,12.14
2023-02-03T01:59:56.336Z,12.15
2023-02-03T02:02:23.320Z,12.16
2023-02-03T02:04:54.529Z,12.17
2023-02-03T02:07:21.180Z,12.16
2023-02-03T02:09:49.064Z,12.16
2023-02-03T02:12:15.764Z,12.15
2023-02-03T02:14:43.020Z,12.17
2023-02-03T02:17:12.879Z,12.15
2023-02-03T02:19:42.751Z,12.13
2023-02-03T02:22:12.560Z,12.13
2023-02-03T02:24:47.654Z,12.14
2023-02-03T02:27:17.434Z,12.11
2023-02-03T02:29:47.204Z,12.14
2023-02-03T02:32:14.384Z,12.14
2023-02-03T02:34:47.254Z,12.13
2023-02-03T02:37:16.959Z,12.15
2023-02-03T02:39:44.988Z,12.15
2023-02-03T02:42:15.874Z,12.18
2023-02-03T02:44:46.240Z,12.18
2023-02-03T02:47:16.000Z,12.17
2023-02-03T02:49:47.365Z,12.17
2023-02-03T02:52:15.831Z,12.17
2023-02-03T02:54:45.577Z,12.15
2023-02-03T02:57:14.218Z,12.16
2023-02-03T02:59:40.909Z,12.18
2023-02-03T03:02:09.224Z,12.16
2023-02-03T03:04:35.999Z,12.17
2023-02-03T03:07:05.765Z,12.18
2023-02-03T03:09:36.660Z,12.19
2023-02-03T03:12:07.925Z,12.18
2023-02-03T03:14:36.859Z,12.20
2023-02-03T03:17:06.184Z,12.19
2023-02-03T03:19:35.095Z,12.19
2023-02-03T03:22:04.395Z,12.17
2023-02-03T03:24:34.003Z,12.16
2023-02-03T03:27:04.062Z,12.14
2023-02-03T03:29:35.491Z,12.14
2023-02-03T03:32:02.562Z,12.14
2023-02-03T03:34:30.260Z,12.12
2023-02-03T03:37:00.170Z,12.09
2023-02-03T03:39:30.158Z,12.09
2023-02-03T03:42:00.169Z,12.09
2023-02-03T03:44:30.030Z,12.07
2023-02-03T03:47:02.266Z,12.03
2023-02-03T03:49:29.585Z,12.00
2023-02-03T03:51:59.304Z,11.95
2023-02-03T03:54:26.497Z,11.94
2023-02-03T03:56:56.301Z,11.93
2023-02-03T03:59:24.650Z,11.91
2023-02-03T04:01:54.884Z,11.89
2023-02-03T04:04:24.433Z,11.87
2023-02-03T04:06:53.318Z,11.83
2023-02-03T04:09:20.149Z,11.81
2023-02-03T04:11:49.915Z,11.78
2023-02-03T04:14:16.937Z,11.76
2023-02-03T04:16:46.078Z,11.73
2023-02-03T04:19:12.814Z,11.72
2023-02-03T04:21:39.483Z,11.72
2023-02-03T04:24:06.580Z,11.71
2023-02-03T04:26:33.395Z,11.69
2023-02-03T04:29:00.093Z,11.70
2023-02-03T04:31:27.433Z,11.70
2023-02-03T04:33:54.364Z,11.68
2023-02-03T04:36:21.114Z,11.66
2023-02-03T04:38:49.869Z,11.64
2023-02-03T04:41:16.925Z,11.62
2023-02-03T04:43:43.692Z,11.65
2023-02-03T04:46:11.020Z,11.64
2023-02-03T04:48:37.943Z,11.64
2023-02-03T04:51:06.051Z,11.65
2023-02-03T04:53:36.131Z,11.65
2023-02-03T04:56:03.289Z,11.66
2023-02-03T04:58:30.689Z,11.67
2023-02-03T05:00:57.452Z,11.69
2023-02-03T05:03:26.277Z,11.70
2023-02-03T05:05:53.244Z,11.68
2023-02-03T05:08:20.182Z,11.67
2023-02-03T05:10:46.903Z,11.66
2023-02-03T05:13:13.623Z,11.64
2023-02-03T05:15:40.426Z,11.63
2023-02-03T05:18:07.663Z,11.61
2023-02-03T05:20:34.428Z,11.59
2023-02-03T05:23:01.439Z,11.59
2023-02-03T05:25:28.409Z,11.60
2023-02-03T05:27:55.851Z,11.62
2023-02-03T05:30:22.963Z,11.61
2023-02-03T05:32:50.514Z,11.61
2023-02-03T05:35:17.614Z,11.61
2023-02-03T05:37:45.763Z,11.62
2023-02-03T05:40:16.944Z,11.62
2023-02-03T05:42:46.950Z,11.61
2023-02-03T05:45:14.175Z,11.62
2023-02-03T05:47:41.155Z,11.60
2023-02-03T05:50:08.248Z,11.61
2023-02-03T05:52:34.942Z,11.63
2023-02-03T05:55:01.629Z,11.64
2023-02-03T05:57:29.108Z,11.62
2023-02-03T05:59:56.925Z,11.62
2023-02-03T06:02:24.015Z,11.62
2023-02-03T06:04:50.816Z,11.63
2023-02-03T06:07:17.529Z,11.63
2023-02-03T06:09:44.382Z,11.64
2023-02-03T06:12:11.221Z,11.64
2023-02-03T06:14:37.924Z,11.65
2023-02-03T06:17:04.965Z,11.67
2023-02-03T06:19:31.649Z,11.67
2023-02-03T06:21:58.356Z,11.69
2023-02-03T06:24:25.213Z,11.68
2023-02-03T06:26:51.929Z,11.70
2023-02-03T06:29:18.608Z,11.71
2023-02-03T06:31:45.505Z,11.72
2023-02-03T06:34:12.385Z,11.71
2023-02-03T06:36:39.510Z,11.73
2023-02-03T06:39:06.452Z,11.73
2023-02-03T06:41:33.145Z,11.74
2023-02-03T06:43:59.857Z,11.73
2023-02-03T06:46:30.383Z,11.72
2023-02-03T06:48:57.225Z,11.73
2023-02-03T06:51:25.006Z,11.71
2023-02-03T06:53:54.068Z,11.73
2023-02-03T06:56:20.749Z,11.73
2023-02-03T06:58:47.591Z,11.73
2023-02-03T07:01:15.140Z,11.73
2023-02-03T07:03:41.862Z,11.73
2023-02-03T07:06:08.998Z,11.75
2023-02-03T07:08:35.878Z,11.75
2023-02-03T07:11:02.636Z,11.75
2023-02-03T07:13:29.425Z,11.74
2023-02-03T07:15:56.292Z,11.76
2023-02-03T07:21:13.228Z,11.75
2023-02-03T07:23:40.227Z,11.75
2023-02-03T07:26:09.793Z,11.75
2023-02-03T07:28:36.714Z,11.76
2023-02-03T07:31:05.085Z,11.75
2023-02-03T07:33:32.431Z,11.74
2023-02-03T07:36:00.302Z,11.75
2023-02-03T07:38:27.944Z,11.77
2023-02-03T07:40:54.900Z,11.76
2023-02-03T07:43:21.724Z,11.76
2023-02-03T07:45:48.492Z,11.77
2023-02-03T07:48:15.407Z,11.77
2023-02-03T07:50:42.304Z,11.77
2023-02-03T07:53:09.566Z,11.77
2023-02-03T07:55:38.224Z,11.78
2023-02-03T07:58:05.015Z,11.79
2023-02-03T08:00:32.221Z,11.80
2023-02-03T08:02:59.103Z,11.82
2023-02-03T08:05:25.841Z,11.82
2023-02-03T08:07:52.669Z,11.84
2023-02-03T08:10:19.684Z,11.86
2023-02-03T08:12:47.259Z,11.85
2023-02-03T08:15:14.660Z,11.84
2023-02-03T08:17:42.219Z,11.86
2023-02-03T08:20:09.711Z,11.87
2023-02-03T08:22:36.557Z,11.91
2023-02-03T08:25:04.165Z,11.91
2023-02-03T08:27:31.851Z,11.94
2023-02-03T08:29:59.052Z,11.95
2023-02-03T08:32:26.246Z,11.97
2023-02-03T08:34:53.569Z,12.00
2023-02-03T08:37:21.558Z,12.03
2023-02-03T08:39:51.664Z,12.06
2023-02-03T08:42:19.193Z,12.08
2023-02-03T08:44:46.195Z,12.11
2023-02-03T08:47:13.084Z,12.14
2023-02-03T08:49:40.024Z,12.15
2023-02-03T08:52:07.748Z,12.16
2023-02-03T08:54:34.971Z,12.15
2023-02-03T08:57:01.825Z,12.16
2023-02-03T08:59:29.456Z,12.16
2023-02-03T09:01:56.301Z,12.15
2023-02-03T09:04:24.973Z,12.16
2023-02-03T09:06:54.757Z,12.20
2023-02-03T09:09:22.109Z,12.34
2023-02-03T09:11:49.299Z,12.42
2023-02-03T09:14:16.134Z,12.41
2023-02-03T09:16:43.634Z,12.37
2023-02-03T09:19:10.539Z,12.39
2023-02-03T09:21:42.541Z,12.39
2023-02-03T09:24:13.802Z,12.38
2023-02-03T09:26:40.665Z,12.40
2023-02-03T09:29:08.017Z,12.43
2023-02-03T09:31:34.841Z,12.41
2023-02-03T09:34:01.776Z,12.46
2023-02-03T09:36:28.954Z,12.49
2023-02-03T09:38:57.196Z,12.54
2023-02-03T09:41:27.139Z,12.59
2023-02-03T09:43:57.022Z,12.63
2023-02-03T09:46:25.910Z,12.68
2023-02-03T09:48:55.122Z,12.72
2023-02-03T09:51:25.272Z,12.76
2023-02-03T09:53:55.244Z,12.79
2023-02-03T09:56:25.148Z,12.84
2023-02-03T09:58:52.019Z,12.83
2023-02-03T10:01:20.452Z,12.84
2023-02-03T10:03:53.049Z,12.87
2023-02-03T10:06:21.266Z,12.89
2023-02-03T10:08:51.059Z,12.93
2023-02-03T10:11:27.084Z,12.97
2023-02-03T10:14:00.510Z,13.01
2023-02-03T10:16:30.842Z,13.05
2023-02-03T10:18:58.861Z,13.10
2023-02-03T10:21:27.131Z,13.15
2023-02-03T10:23:55.366Z,13.16
2023-02-03T10:26:24.827Z,13.20
2023-02-03T10:28:55.442Z,13.25
2023-02-03T10:31:23.963Z,13.31
2023-02-03T10:33:55.619Z,13.31
2023-02-03T10:36:24.197Z,13.33
2023-02-03T10:38:54.653Z,13.39
2023-02-03T10:41:23.126Z,13.41
2023-02-03T10:43:52.145Z,13.46
2023-02-03T10:46:20.908Z,13.50
2023-02-03T10:48:49.523Z,13.56
2023-02-03T10:51:20.093Z,13.60
2023-02-03T10:53:47.029Z,13.61
2023-02-03T10:56:18.582Z,13.62
2023-02-03T10:58:48.723Z,13.66
2023-02-03T11:01:17.201Z,13.69
2023-02-03T11:03:45.507Z,13.70
2023-02-03T11:06:14.138Z,13.69
2023-02-03T11:08:43.095Z,13.72
2023-02-03T11:11:13.520Z,13.76
2023-02-03T11:13:41.003Z,13.77
2023-02-03T11:16:14.032Z,13.80
2023-02-03T11:18:44.446Z,13.82
2023-02-03T11:21:14.058Z,13.86
2023-02-03T11:23:44.116Z,13.89
2023-02-03T11:26:14.603Z,13.92
2023-02-03T11:28:43.179Z,13.96
2023-02-03T11:31:13.180Z,13.98
2023-02-03T11:33:40.063Z,14.03
2023-02-03T11:36:07.327Z,14.05
2023-02-03T11:38:37.029Z,14.08
2023-02-03T11:41:03.857Z,14.11
2023-02-03T11:43:30.821Z,14.16
2023-02-03T11:46:00.679Z,14.16
2023-02-03T11:48:29.121Z,14.21
2023-02-03T11:51:00.441Z,14.25
2023-02-03T11:53:30.465Z,14.23
2023-02-03T11:56:00.678Z,14.25
2023-02-03T11:58:29.243Z,14.27
2023-02-03T12:00:59.360Z,14.30
2023-02-03T12:03:35.303Z,14.29
2023-02-03T12:06:12.297Z,14.30
2023-02-03T12:08:39.620Z,14.29
2023-02-03T12:11:11.128Z,14.31
2023-02-03T12:13:39.259Z,14.32
2023-02-03T12:16:06.633Z,14.35
2023-02-03T12:18:42.406Z,14.39
2023-02-03T12:21:12.447Z,14.46
2023-02-03T12:23:42.310Z,14.53
2023-02-03T12:26:12.458Z,14.60
2023-02-03T12:28:41.182Z,14.65
2023-02-03T12:31:12.973Z,14.68
2023-02-03T12:33:44.756Z,14.68
2023-02-03T12:36:14.565Z,14.67
2023-02-03T12:38:45.261Z,14.66
2023-02-03T12:41:14.780Z,14.68
2023-02-03T12:43:42.018Z,14.72
2023-02-03T12:46:10.181Z,14.73
2023-02-03T12:48:42.820Z,14.76
2023-02-03T12:51:14.009Z,14.78
2023-02-03T12:53:43.374Z,14.77
2023-02-03T12:56:14.243Z,14.77
2023-02-03T12:58:47.388Z,14.75
2023-02-03T13:01:19.387Z,14.76
2023-02-03T13:03:50.769Z,14.79
2023-02-03T13:06:20.903Z,14.84
2023-02-03T13:08:49.043Z,14.88
2023-02-03T13:11:21.484Z,14.92
2023-02-03T13:13:52.495Z,14.96
2023-02-03T13:16:21.640Z,15.04
2023-02-03T13:18:54.018Z,15.09
2023-02-03T13:21:21.243Z,15.18
2023-02-03T13:23:48.596Z,15.28
2023-02-03T13:26:15.804Z,15.35
2023-02-03T13:28:45.825Z,15.43
2023-02-03T13:31:13.510Z,15.52
2023-02-03T13:33:50.163Z,15.55
2023-02-03T13:36:20.173Z,15.60
2023-02-03T13:38:50.126Z,15.58
2023-02-03T13:41:22.667Z,15.55
2023-02-03T13:43:51.483Z,15.52
2023-02-03T13:46:21.387Z,15.48
2023-02-03T13:48:48.364Z,15.46
2023-02-03T13:51:18.429Z,15.36
2023-02-03T13:53:46.359Z,15.31
2023-02-03T13:56:16.294Z,15.30
2023-02-03T13:58:43.139Z,15.30
2023-02-03T14:01:13.140Z,15.31
2023-02-03T14:03:42.127Z,15.28
2023-02-03T14:06:28.916Z,15.29
2023-02-03T14:08:59.268Z,15.30
2023-02-03T14:11:29.146Z,15.30
2023-02-03T14:14:15.817Z,15.29
2023-02-03T14:16:43.684Z,15.27
2023-02-03T14:19:12.325Z,15.25
2023-02-03T14:21:42.571Z,15.22
2023-02-03T14:24:12.131Z,15.20
2023-02-03T14:26:41.666Z,15.19
2023-02-03T14:29:10.107Z,15.16
2023-02-03T14:31:40.170Z,15.13
2023-02-03T14:34:09.773Z,15.09
2023-02-03T14:36:39.829Z,15.06
2023-02-03T14:39:09.904Z,15.05
2023-02-03T14:41:37.099Z,15.04
2023-02-03T14:44:12.764Z,15.03
2023-02-03T14:46:41.300Z,15.01
2023-02-03T14:49:09.619Z,14.96
2023-02-03T14:51:39.634Z,14.91
2023-02-03T14:54:17.299Z,14.87
2023-02-03T14:56:50.259Z,14.83
2023-02-03T14:59:18.334Z,14.83
2023-02-03T15:01:45.817Z,14.81
2023-02-03T15:04:13.125Z,14.79
2023-02-03T15:06:42.267Z,14.76
2023-02-03T15:09:12.104Z,14.75
2023-02-03T15:11:44.485Z,14.73
2023-02-03T15:14:17.556Z,14.69
2023-02-03T15:16:46.365Z,14.70
2023-02-03T15:19:16.219Z,14.66
2023-02-03T15:21:43.122Z,14.65
2023-02-03T15:24:14.422Z,14.63
2023-02-03T15:26:44.453Z,14.62
2023-02-03T15:29:18.454Z,14.62
2023-02-03T15:31:49.147Z,14.60
2023-02-03T15:34:17.452Z,14.60
2023-02-03T15:36:48.433Z,14.57
2023-02-03T15:39:17.042Z,14.53
2023-02-03T15:41:45.506Z,14.49
2023-02-03T15:44:19.450Z,14.47
2023-02-03T15:46:52.060Z,14.44
2023-02-03T15:49:21.994Z,14.43
2023-02-03T15:51:52.099Z,14.40
2023-02-03T15:54:24.677Z,14.39
2023-02-03T15:56:57.604Z,14.40
2023-02-03T15:59:27.713Z,14.42
2023-02-03T16:01:54.813Z,14.40
2023-02-03T16:04:22.477Z,14.39
2023-02-03T16:06:50.618Z,14.38
2023-02-03T16:09:20.499Z,14.37
2023-02-03T16:11:47.690Z,14.36
2023-02-03T16:14:31.380Z,14.36
2023-02-03T16:17:05.481Z,14.35
2023-02-03T16:19:34.720Z,14.36
2023-02-03T16:22:01.582Z,14.36
2023-02-03T16:24:31.428Z,14.35
2023-02-03T16:27:01.452Z,14.35
2023-02-03T16:29:32.531Z,14.35
2023-02-03T16:32:02.692Z,14.34
2023-02-03T16:34:32.619Z,14.33
2023-02-03T16:37:02.732Z,14.32
2023-02-03T16:39:32.804Z,14.31
2023-02-03T16:42:03.105Z,14.30
2023-02-03T16:44:33.044Z,14.31
2023-02-03T16:47:03.679Z,14.36
2023-02-03T16:49:33.699Z,14.35
2023-02-03T16:52:02.105Z,14.33
2023-02-03T16:54:29.219Z,14.31
2023-02-03T16:56:58.713Z,14.28
2023-02-03T16:59:26.071Z,14.28
2023-02-03T17:01:52.960Z,14.26
2023-02-03T17:04:20.188Z,14.24
2023-02-03T17:06:51.346Z,14.24
2023-02-03T17:09:22.634Z,14.23
2023-02-03T17:11:50.535Z,14.20
2023-02-03T17:14:17.431Z,14.19
2023-02-03T17:16:44.502Z,14.17
2023-02-03T17:19:12.193Z,14.14
2023-02-03T17:21:41.264Z,14.13
2023-02-03T17:24:08.164Z,14.12
2023-02-03T17:26:34.998Z,14.08
2023-02-03T17:29:03.722Z,14.08
2023-02-03T17:31:31.561Z,14.07
2023-02-03T17:33:59.359Z,14.08
2023-02-03T17:36:26.394Z,14.09
2023-02-03T17:55:01.933Z,13.96
2023-02-03T17:57:28.775Z,13.96
2023-02-03T17:59:57.307Z,13.97
2023-02-03T18:02:24.143Z,13.94
2023-02-03T18:04:51.036Z,13.93
2023-02-03T18:07:17.837Z,13.92
2023-02-03T18:09:44.656Z,13.93
2023-02-03T18:12:11.428Z,13.91
2023-02-03T18:14:38.531Z,13.91
2023-02-03T18:17:05.309Z,13.87
2023-02-03T18:19:32.254Z,13.83
2023-02-03T18:22:00.486Z,13.81
2023-02-03T18:24:29.959Z,13.79
2023-02-03T18:26:57.284Z,13.79
2023-02-03T18:29:24.662Z,13.78
2023-02-03T18:31:51.569Z,13.77
2023-02-03T18:34:18.891Z,13.77
2023-02-03T18:36:45.827Z,13.76
2023-02-03T18:39:14.518Z,13.77
2023-02-03T18:41:41.573Z,13.76
2023-02-03T18:44:08.445Z,13.75
2023-02-03T18:46:35.252Z,13.74
2023-02-03T18:49:02.374Z,13.70
2023-02-03T18:51:29.233Z,13.69
2023-02-03T18:53:57.131Z,13.69
2023-02-03T18:56:25.478Z,13.69
2023-02-03T18:58:53.144Z,13.69
2023-02-03T19:01:23.057Z,13.66
2023-02-03T19:03:49.974Z,13.64
2023-02-03T19:06:16.986Z,13.61
2023-02-03T19:08:43.825Z,13.60
2023-02-03T19:11:11.226Z,13.58
2023-02-03T19:13:40.544Z,13.54
2023-02-03T19:16:07.665Z,13.50
2023-02-03T19:18:35.556Z,13.45
2023-02-03T19:21:02.401Z,13.42
2023-02-03T19:23:29.315Z,13.38
2023-02-03T19:25:56.155Z,13.36
2023-02-03T19:28:30.404Z,13.33
2023-02-03T19:31:08.189Z,13.28
2023-02-03T19:33:38.496Z,13.25
2023-02-03T19:36:05.661Z,13.23
2023-02-03T19:38:32.491Z,13.20
2023-02-03T19:41:01.813Z,13.17
2023-02-03T19:43:29.027Z,13.16
2023-02-03T19:45:56.208Z,13.15
2023-02-03T19:48:23.326Z,13.14
2023-02-03T19:50:50.249Z,13.12
2023-02-03T19:53:17.506Z,13.13
2023-02-03T19:55:45.197Z,13.12
2023-02-03T19:58:12.307Z,13.10
2023-02-03T20:00:39.730Z,13.12
2023-02-03T20:03:06.505Z,13.15
2023-02-03T20:05:34.063Z,13.15
2023-02-03T20:08:01.005Z,13.17
2023-02-03T20:10:28.463Z,13.18
2023-02-03T20:12:55.860Z,13.18
2023-02-03T20:15:22.630Z,13.19
2023-02-03T20:17:49.516Z,13.19
2023-02-03T20:20:26.831Z,13.22
2023-02-03T20:22:53.598Z,13.25
2023-02-03T20:25:20.482Z,13.26
2023-02-03T20:27:47.464Z,13.24
2023-02-03T20:30:14.416Z,13.24
2023-02-03T20:32:41.248Z,13.22
2023-02-03T20:35:08.884Z,13.20
2023-02-03T20:37:36.646Z,13.18
2023-02-03T20:40:06.562Z,13.15
2023-02-03T20:42:34.249Z,13.12
2023-02-03T20:45:01.150Z,13.08
2023-02-03T20:47:27.971Z,13.06
2023-02-03T20:49:55.745Z,13.04
2023-02-03T20:52:22.883Z,13.01
2023-02-03T20:54:49.766Z,12.99
2023-02-03T20:57:18.789Z,12.97
2023-02-03T20:59:46.286Z,12.96
2023-02-03T21:02:17.906Z,12.94
2023-02-03T21:04:48.094Z,12.93
2023-02-03T21:07:16.269Z,12.89
2023-02-03T21:09:43.091Z,12.88
2023-02-03T21:12:12.663Z,12.86
2023-02-03T21:14:42.412Z,12.85
2023-02-03T21:17:12.627Z,12.81
2023-02-03T21:19:39.414Z,12.78
2023-02-03T21:22:09.443Z,12.76
2023-02-03T21:24:38.367Z,12.74
2023-02-03T21:27:20.424Z,12.71
2023-02-03T21:29:47.309Z,12.68
2023-02-03T21:32:14.838Z,12.65
2023-02-03T21:34:43.581Z,12.59
2023-02-03T21:37:13.479Z,12.54
2023-02-03T21:39:41.511Z,12.53
2023-02-03T21:42:11.457Z,12.49
2023-02-03T21:44:38.576Z,12.47
2023-02-03T21:47:06.457Z,12.46
2023-02-03T21:49:34.267Z,12.42
2023-02-03T21:52:01.130Z,12.39
2023-02-03T21:54:30.525Z,12.35
2023-02-03T21:56:57.696Z,12.33
2023-02-03T21:59:28.555Z,12.29
2023-02-03T22:01:56.420Z,12.25
2023-02-03T22:04:25.687Z,12.22
2023-02-03T22:06:54.401Z,12.17
2023-02-03T22:09:22.204Z,12.16
2023-02-03T22:11:48.933Z,12.13
2023-02-03T22:14:16.720Z,12.08
2023-02-03T22:16:44.670Z,12.06
2023-02-03T22:19:11.588Z,12.03
2023-02-03T22:21:38.622Z,12.03
2023-02-03T22:24:05.951Z,12.00
2023-02-03T22:26:32.778Z,11.97
2023-02-03T22:28:59.832Z,11.95
2023-02-03T22:31:26.844Z,11.96
2023-02-03T22:33:53.860Z,11.97
2023-02-03T22:36:23.699Z,11.99
2023-02-03T22:38:50.599Z,11.98
2023-02-03T22:41:17.519Z,11.98
2023-02-03T22:43:44.505Z,11.96
2023-02-03T22:46:11.477Z,11.93
2023-02-03T22:48:38.337Z,11.89
2023-02-03T22:51:05.467Z,11.86
2023-02-03T22:53:32.829Z,11.86
2023-02-03T22:55:59.563Z,11.86
2023-02-03T22:58:26.475Z,11.85
2023-02-03T23:00:53.319Z,11.87
2023-02-03T23:03:20.053Z,11.87
2023-02-03T23:05:46.851Z,11.84
2023-02-03T23:08:14.229Z,11.83
2023-02-03T23:10:41.101Z,11.83
2023-02-03T23:13:08.371Z,11.79
2023-02-03T23:15:35.744Z,11.78
2023-02-03T23:18:02.573Z,11.79
2023-02-03T23:20:29.769Z,11.79
2023-02-03T23:22:56.893Z,11.77
2023-02-03T23:25:23.619Z,11.74
2023-02-03T23:27:50.445Z,11.74
2023-02-03T23:30:17.502Z,11.72
2023-02-03T23:32:44.640Z,11.72
2023-02-03T23:35:14.456Z,11.73
2023-02-03T23:37:41.140Z,11.75
2023-02-03T23:40:09.822Z,11.76
2023-02-03T23:42:36.557Z,11.77
2023-02-03T23:45:08.033Z,11.77
2023-02-03T23:47:35.334Z,11.77
2023-02-03T23:50:02.334Z,11.81
2023-02-03T23:52:35.678Z,11.83
2023-02-03T23:55:05.307Z,11.84
2023-02-03T23:57:32.057Z,11.80
2023-02-03T23:59:58.985Z,11.80
